Berkley, MI

5:16 AM EDT on March 24, 2017 (GMT -0400)
Huntington Woods | | Change Station

Elev 663 ft 42.48 °N, 83.17 °W | Updated 25 seconds ago

Rain
Rain
40.5 °F
Feels Like 40 °F
N
2.7
Wind Variable Wind from SSW

Today
High -- | Low -- °F
--% Chance of Precip.
Yesterday
High -- | Low -- °F
Precip. -- in
Pressure 30.03 in
Visibility 10.0 miles
Clouds Mostly Cloudy 5500 ft
Windchill 40 °F
Dew Point 39 °F
Humidity 95%
Rainfall 0.15 in
Snow Depth Not available.
7:28 AM 7:49 PM
Waning Crescent, 16% visible
METAR KVLL 240854Z AUTO 21006KT 10SM BKN055 05/03 A3003 RMK AO2 T00470030
Pressure 30.03 in
Visibility 10.0 miles
Clouds Mostly Cloudy 5500 ft
Windchill 40 °F
Dew Point 39 °F
Humidity 95%
Rainfall 0.15 in
Snow Depth Not available.
7:28 AM 7:49 PM
Waning Crescent, 16% visible
METAR KVLL 240854Z AUTO 21006KT 10SM BKN055 05/03 A3003 RMK AO2 T00470030

Get Severe Weather Alerts

Thanks for signing up!

Be on the lookout for a verification email in your inbox.

You'll start receiving the daily forecast at 8 AM.

×

10-Day Weather Forecast

Almanac

Astronomy

Mar. 24, 2017 Rise Set
Actual Time
Civil Twilight
Nautical Twilight
Astronomical Twilight
Moon
Length of Visible Light
Length of Day
Tomorrow will be .
, % of the Moon is Illuminated

Today's Extremes

State Highs State Lows

Community

WunderPhotos

Upload Photos

1,962,540 photos uploaded!

WunderBlog® & News

Nearby

Air Quality

  Air Quality AQ Index Pollutant
Not available.

Snow Depth

Station Depth Elevation

Earthquake Activity

City Distance Mag. Time & Date
Minimum magnitude displayed is 2.5.

Earthquake Activity

City Distance Mag. Time & Date
Minimum magnitude displayed is 2.5.

Coastal Water Temperatures

Place Temperature

Stations

Nearby Weather Stations

Station Location Temp. Windchill Dew Point Humidity Wind Precip. Elev Updated Type
                   

Watches & Warnings

There are currently no watches in effect.